sensor_id;sensor_type;location;lat;lon;timestamp;pressure;altitude;pressure_sealevel;temperature;humidity
19845;BME280;10083;51.038;7.012;2023-11-22T00:01:23;104005.91;;;7.98;100.00
19845;BME280;10083;51.038;7.012;2023-11-22T00:03:51;104027.88;;;7.91;100.00
19845;BME280;10083;51.038;7.012;2023-11-22T00:06:20;104015.13;;;7.84;100.00
19845;BME280;10083;51.038;7.012;2023-11-22T00:08:48;104013.84;;;7.97;100.00
19845;BME280;10083;51.038;7.012;2023-11-22T00:11:16;104014.28;;;8.07;100.00
19845;BME280;10083;51.038;7.012;2023-11-22T00:13:43;104007.38;;;8.12;100.00
19845;BME280;10083;51.038;7.012;2023-11-22T00:16:11;104009.78;;;8.06;100.00
19845;BME280;10083;51.038;7.012;2023-11-22T00:18:38;104013.63;;;8.13;100.00
19845;BME280;10083;51.038;7.012;2023-11-22T00:21:06;103995.91;;;8.15;100.00
19845;BME280;10083;51.038;7.012;2023-11-22T00:23:35;104003.63;;;8.07;100.00
19845;BME280;10083;51.038;7.012;2023-11-22T00:26:03;103996.34;;;8.03;100.00
19845;BME280;10083;51.038;7.012;2023-11-22T00:28:31;103982.44;;;8.12;100.00
19845;BME280;10083;51.038;7.012;2023-11-22T00:30:59;103986.06;;;8.14;100.00
19845;BME280;10083;51.038;7.012;2023-11-22T00:33:26;103992.13;;;8.10;100.00
19845;BME280;10083;51.038;7.012;2023-11-22T00:35:54;103989.72;;;8.16;100.00
19845;BME280;10083;51.038;7.012;2023-11-22T00:38:22;103991.47;;;8.15;100.00
19845;BME280;10083;51.038;7.012;2023-11-22T00:40:51;103996.75;;;8.14;100.00
19845;BME280;10083;51.038;7.012;2023-11-22T00:43:18;103991.53;;;8.17;100.00
19845;BME280;10083;51.038;7.012;2023-11-22T00:45:46;103996.91;;;8.18;100.00
19845;BME280;10083;51.038;7.012;2023-11-22T00:48:13;103997.63;;;8.13;100.00
19845;BME280;10083;51.038;7.012;2023-11-22T00:50:41;103997.66;;;8.14;100.00
19845;BME280;10083;51.038;7.012;2023-11-22T00:53:08;103999.78;;;8.23;100.00
19845;BME280;10083;51.038;7.012;2023-11-22T00:55:36;103995.06;;;8.16;100.00
19845;BME280;10083;51.038;7.012;2023-11-22T00:58:04;103997.84;;;8.19;100.00
19845;BME280;10083;51.038;7.012;2023-11-22T01:00:33;103987.31;;;8.22;100.00
19845;BME280;10083;51.038;7.012;2023-11-22T01:03:00;103983.91;;;8.26;100.00
19845;BME280;10083;51.038;7.012;2023-11-22T01:05:30;103987.16;;;8.19;100.00
19845;BME280;10083;51.038;7.012;2023-11-22T01:07:58;103989.22;;;8.26;100.00
19845;BME280;10083;51.038;7.012;2023-11-22T01:10:25;103986.31;;;8.20;100.00
19845;BME280;10083;51.038;7.012;2023-11-22T01:12:53;103987.31;;;8.22;100.00
19845;BME280;10083;51.038;7.012;2023-11-22T01:15:22;103991.84;;;8.25;100.00
19845;BME280;10083;51.038;7.012;2023-11-22T01:17:50;103987.78;;;8.34;100.00
19845;BME280;10083;51.038;7.012;2023-11-22T01:20:17;103997.00;;;8.20;100.00
19845;BME280;10083;51.038;7.012;2023-11-22T01:22:48;104002.06;;;8.14;100.00
19845;BME280;10083;51.038;7.012;2023-11-22T01:25:16;103999.41;;;8.14;100.00
19845;BME280;10083;51.038;7.012;2023-11-22T01:27:43;104012.94;;;8.18;100.00
19845;BME280;10083;51.038;7.012;2023-11-22T01:30:11;104008.41;;;8.16;100.00
19845;BME280;10083;51.038;7.012;2023-11-22T01:32:40;104018.72;;;8.07;100.00
19845;BME280;10083;51.038;7.012;2023-11-22T01:35:08;104013.38;;;8.07;100.00
19845;BME280;10083;51.038;7.012;2023-11-22T01:37:39;104009.72;;;8.05;100.00
19845;BME280;10083;51.038;7.012;2023-11-22T01:40:07;104018.47;;;8.01;100.00
19845;BME280;10083;51.038;7.012;2023-11-22T01:42:36;104020.19;;;7.99;100.00
19845;BME280;10083;51.038;7.012;2023-11-22T01:45:06;104021.81;;;7.95;100.00
19845;BME280;10083;51.038;7.012;2023-11-22T01:47:36;104032.53;;;7.97;100.00
19845;BME280;10083;51.038;7.012;2023-11-22T01:50:07;104035.34;;;8.00;100.00
19845;BME280;10083;51.038;7.012;2023-11-22T01:52:35;104045.22;;;8.02;100.00
19845;BME280;10083;51.038;7.012;2023-11-22T01:55:04;104047.59;;;7.95;100.00
19845;BME280;10083;51.038;7.012;2023-11-22T01:57:32;104053.97;;;7.98;100.00
19845;BME280;10083;51.038;7.012;2023-11-22T02:00:01;104047.22;;;8.08;100.00
19845;BME280;10083;51.038;7.012;2023-11-22T02:02:38;104043.72;;;8.09;100.00
19845;BME280;10083;51.038;7.012;2023-11-22T02:05:08;104058.69;;;8.05;100.00
19845;BME280;10083;51.038;7.012;2023-11-22T02:07:38;104044.75;;;8.12;100.00
19845;BME280;10083;51.038;7.012;2023-11-22T02:10:08;104059.41;;;8.01;100.00
19845;BME280;10083;51.038;7.012;2023-11-22T02:12:35;104059.84;;;8.12;100.00
19845;BME280;10083;51.038;7.012;2023-11-22T02:15:03;104056.34;;;8.13;100.00
19845;BME280;10083;51.038;7.012;2023-11-22T02:17:31;104071.44;;;8.12;100.00
19845;BME280;10083;51.038;7.012;2023-11-22T02:20:00;104069.72;;;8.14;100.00
19845;BME280;10083;51.038;7.012;2023-11-22T02:22:33;104075.97;;;8.15;100.00
19845;BME280;10083;51.038;7.012;2023-11-22T02:25:05;104077.31;;;8.04;100.00
19845;BME280;10083;51.038;7.012;2023-11-22T02:27:35;104073.13;;;8.10;100.00
19845;BME280;10083;51.038;7.012;2023-11-22T02:30:04;104080.94;;;8.06;100.00
19845;BME280;10083;51.038;7.012;2023-11-22T02:32:35;104073.94;;;8.08;100.00
19845;BME280;10083;51.038;7.012;2023-11-22T02:35:02;104083.31;;;7.98;100.00
19845;BME280;10083;51.038;7.012;2023-11-22T02:37:33;104066.84;;;8.08;100.00
19845;BME280;10083;51.038;7.012;2023-11-22T02:40:09;104052.78;;;8.14;100.00
19845;BME280;10083;51.038;7.012;2023-11-22T02:42:42;104039.78;;;8.22;100.00
19845;BME280;10083;51.038;7.012;2023-11-22T02:45:10;104036.00;;;8.16;100.00
19845;BME280;10083;51.038;7.012;2023-11-22T02:47:38;104034.00;;;8.11;100.00
19845;BME280;10083;51.038;7.012;2023-11-22T02:50:06;104033.16;;;8.12;100.00
19845;BME280;10083;51.038;7.012;2023-11-22T02:52:34;104020.28;;;8.02;100.00
19845;BME280;10083;51.038;7.012;2023-11-22T02:55:03;104015.13;;;8.06;100.00
19845;BME280;10083;51.038;7.012;2023-11-22T02:57:33;104012.53;;;8.08;100.00
19845;BME280;10083;51.038;7.012;2023-11-22T03:00:03;104009.69;;;8.03;100.00
19845;BME280;10083;51.038;7.012;2023-11-22T03:02:32;104021.31;;;8.05;100.00
19845;BME280;10083;51.038;7.012;2023-11-22T03:05:00;104039.59;;;7.95;100.00
19845;BME280;10083;51.038;7.012;2023-11-22T03:07:27;104028.09;;;7.97;100.00
19845;BME280;10083;51.038;7.012;2023-11-22T03:09:55;104044.72;;;7.90;100.00
19845;BME280;10083;51.038;7.012;2023-11-22T03:12:26;104040.50;;;7.95;100.00
19845;BME280;10083;51.038;7.012;2023-11-22T03:14:55;104042.97;;;7.91;100.00
19845;BME280;10083;51.038;7.012;2023-11-22T03:17:26;104043.75;;;7.88;100.00
19845;BME280;10083;51.038;7.012;2023-11-22T03:19:53;104053.72;;;7.71;100.00
19845;BME280;10083;51.038;7.012;2023-11-22T03:22:22;104058.75;;;7.64;100.00
19845;BME280;10083;51.038;7.012;2023-11-22T03:24:51;104063.50;;;7.50;100.00
19845;BME280;10083;51.038;7.012;2023-11-22T03:27:19;104074.75;;;7.43;100.00
19845;BME280;10083;51.038;7.012;2023-11-22T03:29:48;104083.41;;;7.38;100.00
19845;BME280;10083;51.038;7.012;2023-11-22T03:32:18;104089.16;;;7.27;100.00
19845;BME280;10083;51.038;7.012;2023-11-22T03:34:46;104095.16;;;7.22;100.00
19845;BME280;10083;51.038;7.012;2023-11-22T03:37:13;104108.78;;;7.09;100.00
19845;BME280;10083;51.038;7.012;2023-11-22T03:39:43;104116.19;;;6.97;100.00
19845;BME280;10083;51.038;7.012;2023-11-22T03:42:14;104123.75;;;6.88;100.00
19845;BME280;10083;51.038;7.012;2023-11-22T03:44:45;104134.84;;;6.77;100.00
19845;BME280;10083;51.038;7.012;2023-11-22T03:47:15;104132.03;;;6.74;100.00
19845;BME280;10083;51.038;7.012;2023-11-22T03:49:47;104141.59;;;6.69;100.00
19845;BME280;10083;51.038;7.012;2023-11-22T03:52:14;104145.47;;;6.58;100.00
19845;BME280;10083;51.038;7.012;2023-11-22T03:54:42;104151.66;;;6.40;100.00
19845;BME280;10083;51.038;7.012;2023-11-22T03:57:11;104163.69;;;6.31;100.00
19845;BME280;10083;51.038;7.012;2023-11-22T03:59:40;104178.97;;;6.18;100.00
19845;BME280;10083;51.038;7.012;2023-11-22T04:02:08;104186.28;;;6.22;100.00
19845;BME280;10083;51.038;7.012;2023-11-22T04:04:36;104193.28;;;6.20;100.00
19845;BME280;10083;51.038;7.012;2023-11-22T04:07:07;104217.75;;;6.13;100.00
19845;BME280;10083;51.038;7.012;2023-11-22T04:09:35;104226.41;;;6.09;100.00
19845;BME280;10083;51.038;7.012;2023-11-22T04:12:04;104229.09;;;6.09;100.00
19845;BME280;10083;51.038;7.012;2023-11-22T04:14:32;104252.53;;;6.00;100.00
19845;BME280;10083;51.038;7.012;2023-11-22T04:17:01;104258.84;;;6.02;100.00
19845;BME280;10083;51.038;7.012;2023-11-22T04:19:29;104254.44;;;6.02;100.00
19845;BME280;10083;51.038;7.012;2023-11-22T04:21:56;104267.34;;;5.95;100.00
19845;BME280;10083;51.038;7.012;2023-11-22T04:24:26;104288.09;;;5.85;100.00
19845;BME280;10083;51.038;7.012;2023-11-22T04:26:54;104291.28;;;5.78;100.00
19845;BME280;10083;51.038;7.012;2023-11-22T04:29:21;104304.59;;;5.78;100.00
19845;BME280;10083;51.038;7.012;2023-11-22T04:31:49;104316.38;;;5.67;100.00
19845;BME280;10083;51.038;7.012;2023-11-22T04:34:16;104318.38;;;5.55;100.00
19845;BME280;10083;51.038;7.012;2023-11-22T04:36:44;104330.06;;;5.59;100.00
19845;BME280;10083;51.038;7.012;2023-11-22T04:39:12;104338.16;;;5.60;100.00
19845;BME280;10083;51.038;7.012;2023-11-22T04:41:44;104336.16;;;5.56;100.00
19845;BME280;10083;51.038;7.012;2023-11-22T04:44:12;104357.22;;;5.37;100.00
19845;BME280;10083;51.038;7.012;2023-11-22T04:46:39;104346.94;;;5.43;100.00
19845;BME280;10083;51.038;7.012;2023-11-22T04:49:07;104346.75;;;5.40;100.00
19845;BME280;10083;51.038;7.012;2023-11-22T04:51:34;104335.94;;;5.37;100.00
19845;BME280;10083;51.038;7.012;2023-11-22T04:54:02;104341.09;;;5.34;100.00
19845;BME280;10083;51.038;7.012;2023-11-22T04:56:29;104349.22;;;5.21;100.00
19845;BME280;10083;51.038;7.012;2023-11-22T04:58:58;104353.34;;;5.16;100.00
19845;BME280;10083;51.038;7.012;2023-11-22T05:01:31;104353.84;;;5.09;100.00
19845;BME280;10083;51.038;7.012;2023-11-22T05:03:59;104361.34;;;5.01;100.00
19845;BME280;10083;51.038;7.012;2023-11-22T05:06:26;104377.94;;;4.97;100.00
19845;BME280;10083;51.038;7.012;2023-11-22T05:08:57;104378.53;;;4.91;100.00
19845;BME280;10083;51.038;7.012;2023-11-22T05:11:25;104383.63;;;4.88;100.00
19845;BME280;10083;51.038;7.012;2023-11-22T05:13:52;104389.84;;;4.89;100.00
19845;BME280;10083;51.038;7.012;2023-11-22T05:16:22;104397.38;;;4.81;100.00
19845;BME280;10083;51.038;7.012;2023-11-22T05:18:49;104412.94;;;4.75;100.00
19845;BME280;10083;51.038;7.012;2023-11-22T05:21:17;104410.50;;;4.78;100.00
19845;BME280;10083;51.038;7.012;2023-11-22T05:23:45;104409.34;;;4.75;100.00
19845;BME280;10083;51.038;7.012;2023-11-22T05:26:12;104400.00;;;4.96;100.00
19845;BME280;10083;51.038;7.012;2023-11-22T05:28:40;104403.28;;;5.07;100.00
19845;BME280;10083;51.038;7.012;2023-11-22T05:31:07;104422.38;;;4.99;100.00
19845;BME280;10083;51.038;7.012;2023-11-22T05:33:36;104427.41;;;4.95;100.00
19845;BME280;10083;51.038;7.012;2023-11-22T05:36:04;104445.63;;;4.89;100.00
19845;BME280;10083;51.038;7.012;2023-11-22T05:38:32;104442.69;;;4.84;100.00
19845;BME280;10083;51.038;7.012;2023-11-22T05:41:00;104443.88;;;4.89;100.00
19845;BME280;10083;51.038;7.012;2023-11-22T05:43:28;104452.75;;;4.75;100.00
19845;BME280;10083;51.038;7.012;2023-11-22T05:45:56;104456.22;;;4.74;100.00
19845;BME280;10083;51.038;7.012;2023-11-22T05:48:23;104457.16;;;4.75;100.00
19845;BME280;10083;51.038;7.012;2023-11-22T05:50:53;104467.47;;;4.70;100.00
19845;BME280;10083;51.038;7.012;2023-11-22T05:53:20;104473.16;;;4.62;100.00
19845;BME280;10083;51.038;7.012;2023-11-22T05:55:48;104467.84;;;4.62;100.00
19845;BME280;10083;51.038;7.012;2023-11-22T05:58:18;104470.03;;;4.54;100.00
19845;BME280;10083;51.038;7.012;2023-11-22T06:00:47;104472.88;;;4.57;100.00
19845;BME280;10083;51.038;7.012;2023-11-22T06:03:14;104472.28;;;4.61;100.00
19845;BME280;10083;51.038;7.012;2023-11-22T06:05:42;104481.97;;;4.61;100.00
19845;BME280;10083;51.038;7.012;2023-11-22T06:08:11;104478.28;;;4.59;100.00
19845;BME280;10083;51.038;7.012;2023-11-22T06:10:42;104488.16;;;4.46;100.00
19845;BME280;10083;51.038;7.012;2023-11-22T06:13:09;104489.91;;;4.46;100.00
19845;BME280;10083;51.038;7.012;2023-11-22T06:15:38;104487.81;;;4.27;100.00
19845;BME280;10083;51.038;7.012;2023-11-22T06:18:05;104491.03;;;4.22;100.00
19845;BME280;10083;51.038;7.012;2023-11-22T07:14:09;104533.88;;;3.87;100.00
19845;BME280;10083;51.038;7.012;2023-11-22T07:16:37;104547.75;;;3.83;100.00
19845;BME280;10083;51.038;7.012;2023-11-22T07:19:04;104548.88;;;3.73;100.00
19845;BME280;10083;51.038;7.012;2023-11-22T07:21:36;104544.47;;;3.74;100.00
19845;BME280;10083;51.038;7.012;2023-11-22T07:24:07;104547.63;;;3.81;100.00
19845;BME280;10083;51.038;7.012;2023-11-22T07:26:38;104559.03;;;3.67;100.00
19845;BME280;10083;51.038;7.012;2023-11-22T07:29:10;104568.03;;;3.69;100.00
19845;BME280;10083;51.038;7.012;2023-11-22T07:31:42;104574.44;;;3.73;100.00
19845;BME280;10083;51.038;7.012;2023-11-22T07:34:11;104566.38;;;3.71;100.00
19845;BME280;10083;51.038;7.012;2023-11-22T07:36:40;104574.03;;;3.67;100.00
19845;BME280;10083;51.038;7.012;2023-11-22T07:39:10;104590.47;;;3.61;100.00
19845;BME280;10083;51.038;7.012;2023-11-22T07:41:39;104601.34;;;3.65;100.00
19845;BME280;10083;51.038;7.012;2023-11-22T07:44:09;104607.66;;;3.68;100.00
19845;BME280;10083;51.038;7.012;2023-11-22T07:46:37;104615.19;;;3.75;100.00
19845;BME280;10083;51.038;7.012;2023-11-22T07:49:04;104608.97;;;3.87;100.00
19845;BME280;10083;51.038;7.012;2023-11-22T07:51:32;104604.41;;;3.98;100.00
19845;BME280;10083;51.038;7.012;2023-11-22T07:54:00;104612.84;;;4.05;100.00
19845;BME280;10083;51.038;7.012;2023-11-22T07:56:28;104606.22;;;4.12;100.00
19845;BME280;10083;51.038;7.012;2023-11-22T07:58:58;104596.91;;;4.19;100.00
19845;BME280;10083;51.038;7.012;2023-11-22T08:01:28;104592.00;;;4.25;100.00
19845;BME280;10083;51.038;7.012;2023-11-22T08:04:00;104585.28;;;4.30;100.00
19845;BME280;10083;51.038;7.012;2023-11-22T08:06:28;104580.44;;;4.37;100.00
19845;BME280;10083;51.038;7.012;2023-11-22T08:25:49;104495.34;;;5.21;100.00
19845;BME280;10083;51.038;7.012;2023-11-22T08:28:17;104489.00;;;5.33;100.00
19845;BME280;10083;51.038;7.012;2023-11-22T08:30:45;104484.34;;;5.29;100.00
19845;BME280;10083;51.038;7.012;2023-11-22T08:33:13;104477.34;;;5.46;100.00
19845;BME280;10083;51.038;7.012;2023-11-22T08:35:41;104476.16;;;5.41;100.00
19845;BME280;10083;51.038;7.012;2023-11-22T08:38:09;104466.59;;;5.44;100.00
19845;BME280;10083;51.038;7.012;2023-11-22T08:40:37;104465.94;;;5.48;100.00
19845;BME280;10083;51.038;7.012;2023-11-22T09:44:55;104972.28;;;8.19;100.00
19845;BME280;10083;51.038;7.012;2023-11-22T09:47:23;104958.78;;;8.48;100.00
19845;BME280;10083;51.038;7.012;2023-11-22T09:49:52;104964.94;;;8.63;100.00
19845;BME280;10083;51.038;7.012;2023-11-22T09:52:25;104976.78;;;8.69;100.00
19845;BME280;10083;51.038;7.012;2023-11-22T09:54:55;105029.00;;;8.30;100.00
19845;BME280;10083;51.038;7.012;2023-11-22T09:57:24;105026.38;;;8.80;100.00
19845;BME280;10083;51.038;7.012;2023-11-22T09:59:57;105045.44;;;8.70;100.00
19845;BME280;10083;51.038;7.012;2023-11-22T10:05:27;105087.72;;;9.11;100.00
19845;BME280;10083;51.038;7.012;2023-11-22T10:07:56;105102.59;;;9.22;100.00
19845;BME280;10083;51.038;7.012;2023-11-22T10:10:25;105104.50;;;9.24;100.00
19845;BME280;10083;51.038;7.012;2023-11-22T10:12:57;105131.53;;;9.13;100.00
19845;BME280;10083;51.038;7.012;2023-11-22T10:15:36;105116.25;;;9.44;100.00
19845;BME280;10083;51.038;7.012;2023-11-22T10:18:05;105131.38;;;9.27;100.00
19845;BME280;10083;51.038;7.012;2023-11-22T10:20:36;105133.31;;;9.64;100.00
19845;BME280;10083;51.038;7.012;2023-11-22T10:23:08;105138.75;;;9.65;100.00
19845;BME280;10083;51.038;7.012;2023-11-22T10:25:36;105146.66;;;9.46;100.00
19845;BME280;10083;51.038;7.012;2023-11-22T10:28:08;105131.09;;;9.90;100.00
19845;BME280;10083;51.038;7.012;2023-11-22T10:30:38;105135.84;;;9.96;100.00
19845;BME280;10083;51.038;7.012;2023-11-22T10:33:06;105149.84;;;10.08;100.00
19845;BME280;10083;51.038;7.012;2023-11-22T10:35:35;105164.00;;;10.06;100.00
19845;BME280;10083;51.038;7.012;2023-11-22T10:38:03;105164.84;;;9.87;100.00
19845;BME280;10083;51.038;7.012;2023-11-22T10:40:32;105168.97;;;9.98;100.00
19845;BME280;10083;51.038;7.012;2023-11-22T10:42:59;105154.81;;;10.18;100.00
19845;BME280;10083;51.038;7.012;2023-11-22T10:45:29;105137.06;;;9.67;100.00
19845;BME280;10083;51.038;7.012;2023-11-22T10:48:00;105147.16;;;9.90;100.00
19845;BME280;10083;51.038;7.012;2023-11-22T10:50:31;105163.16;;;10.07;100.00
19845;BME280;10083;51.038;7.012;2023-11-22T10:52:58;105167.50;;;10.77;100.00
19845;BME280;10083;51.038;7.012;2023-11-22T10:55:32;105162.22;;;10.78;100.00
19845;BME280;10083;51.038;7.012;2023-11-22T10:58:02;105151.28;;;11.12;100.00
19845;BME280;10083;51.038;7.012;2023-11-22T11:00:31;105146.06;;;10.96;100.00
19845;BME280;10083;51.038;7.012;2023-11-22T11:03:07;105101.84;;;11.07;100.00
19845;BME280;10083;51.038;7.012;2023-11-22T11:05:38;105074.22;;;11.10;100.00
19845;BME280;10083;51.038;7.012;2023-11-22T11:08:08;105136.75;;;11.68;100.00
19845;BME280;10083;51.038;7.012;2023-11-22T11:10:38;105019.03;;;11.15;100.00
19845;BME280;10083;51.038;7.012;2023-11-22T11:13:07;105151.41;;;11.34;100.00
19845;BME280;10083;51.038;7.012;2023-11-22T11:15:35;105200.25;;;11.67;100.00
19845;BME280;10083;51.038;7.012;2023-11-22T11:18:05;105097.72;;;11.34;100.00
19845;BME280;10083;51.038;7.012;2023-11-22T11:20:37;104971.78;;;10.98;100.00
19845;BME280;10083;51.038;7.012;2023-11-22T11:23:13;105111.41;;;10.62;100.00
19845;BME280;10083;51.038;7.012;2023-11-22T11:25:41;105144.41;;;10.42;100.00
19845;BME280;10083;51.038;7.012;2023-11-22T11:28:10;105198.91;;;10.79;100.00
19845;BME280;10083;51.038;7.012;2023-11-22T11:30:46;105144.75;;;10.30;100.00
19845;BME280;10083;51.038;7.012;2023-11-22T11:33:18;105130.53;;;10.70;100.00
19845;BME280;10083;51.038;7.012;2023-11-22T11:35:47;105102.38;;;10.79;100.00
19845;BME280;10083;51.038;7.012;2023-11-22T11:38:16;105032.09;;;10.86;100.00
19845;BME280;10083;51.038;7.012;2023-11-22T11:40:47;105070.81;;;10.93;100.00
19845;BME280;10083;51.038;7.012;2023-11-22T11:43:20;105160.09;;;11.90;100.00
19845;BME280;10083;51.038;7.012;2023-11-22T11:45:48;105173.38;;;11.07;100.00
19845;BME280;10083;51.038;7.012;2023-11-22T11:48:17;105161.31;;;10.78;100.00
19845;BME280;10083;51.038;7.012;2023-11-22T11:50:46;105137.03;;;11.13;100.00
19845;BME280;10083;51.038;7.012;2023-11-22T11:53:13;105139.97;;;12.23;100.00
19845;BME280;10083;51.038;7.012;2023-11-22T11:55:41;105079.22;;;12.50;100.00
19845;BME280;10083;51.038;7.012;2023-11-22T11:58:11;105046.81;;;12.23;100.00
19845;BME280;10083;51.038;7.012;2023-11-22T12:00:39;105081.94;;;12.74;100.00
19845;BME280;10083;51.038;7.012;2023-11-22T12:03:13;104964.69;;;12.32;100.00
19845;BME280;10083;51.038;7.012;2023-11-22T12:05:51;104992.00;;;13.17;100.00
19845;BME280;10083;51.038;7.012;2023-11-22T12:08:24;104961.81;;;12.75;100.00
19845;BME280;10083;51.038;7.012;2023-11-22T12:10:56;104958.81;;;13.44;100.00
19845;BME280;10083;51.038;7.012;2023-11-22T12:13:25;104887.44;;;12.77;100.00
19845;BME280;10083;51.038;7.012;2023-11-22T12:15:53;104850.28;;;13.19;100.00
19845;BME280;10083;51.038;7.012;2023-11-22T12:18:22;104930.50;;;12.28;100.00
19845;BME280;10083;51.038;7.012;2023-11-22T12:20:59;104930.97;;;11.48;100.00
19845;BME280;10083;51.038;7.012;2023-11-22T12:23:27;104922.03;;;11.71;100.00
19845;BME280;10083;51.038;7.012;2023-11-22T12:25:55;105041.91;;;10.86;100.00
19845;BME280;10083;51.038;7.012;2023-11-22T12:33:45;105017.03;;;12.41;100.00
19845;BME280;10083;51.038;7.012;2023-11-22T12:36:16;104855.28;;;14.59;100.00
19845;BME280;10083;51.038;7.012;2023-11-22T12:38:43;104626.78;;;15.40;100.00
19845;BME280;10083;51.038;7.012;2023-11-22T12:41:11;104540.13;;;15.80;100.00
19845;BME280;10083;51.038;7.012;2023-11-22T12:43:39;104427.56;;;15.82;100.00
19845;BME280;10083;51.038;7.012;2023-11-22T12:46:07;104418.38;;;16.42;100.00
19845;BME280;10083;51.038;7.012;2023-11-22T12:48:39;104288.69;;;16.59;100.00
19845;BME280;10083;51.038;7.012;2023-11-22T12:51:16;104255.47;;;16.78;100.00
19845;BME280;10083;51.038;7.012;2023-11-22T12:53:52;104219.16;;;16.52;100.00
19845;BME280;10083;51.038;7.012;2023-11-22T12:56:23;104291.16;;;15.53;100.00
19845;BME280;10083;51.038;7.012;2023-11-22T12:58:54;104283.13;;;15.61;100.00
19845;BME280;10083;51.038;7.012;2023-11-22T13:01:23;104179.53;;;16.60;100.00
19845;BME280;10083;51.038;7.012;2023-11-22T13:03:53;104205.19;;;17.27;100.00
19845;BME280;10083;51.038;7.012;2023-11-22T13:09:15;104143.81;;;17.38;100.00
19845;BME280;10083;51.038;7.012;2023-11-22T13:11:51;104153.72;;;17.41;100.00
19845;BME280;10083;51.038;7.012;2023-11-22T13:14:22;104180.63;;;16.88;100.00
19845;BME280;10083;51.038;7.012;2023-11-22T13:28:07;104229.97;;;16.55;100.00
19845;BME280;10083;51.038;7.012;2023-11-22T13:30:35;104133.94;;;17.58;100.00
19845;BME280;10083;51.038;7.012;2023-11-22T13:33:08;104279.50;;;16.45;100.00
19845;BME280;10083;51.038;7.012;2023-11-22T13:35:40;104391.63;;;15.31;100.00
19845;BME280;10083;51.038;7.012;2023-11-22T13:38:11;104303.66;;;16.22;100.00
19845;BME280;10083;51.038;7.012;2023-11-22T13:40:48;104367.75;;;15.57;100.00
19845;BME280;10083;51.038;7.012;2023-11-22T13:43:19;104420.34;;;16.57;100.00
19845;BME280;10083;51.038;7.012;2023-11-22T13:45:56;104343.97;;;16.88;100.00
19845;BME280;10083;51.038;7.012;2023-11-22T13:48:31;104339.44;;;15.98;100.00
19845;BME280;10083;51.038;7.012;2023-11-22T13:51:06;104538.06;;;14.68;100.00
19845;BME280;10083;51.038;7.012;2023-11-22T13:53:37;104533.84;;;14.39;100.00
19845;BME280;10083;51.038;7.012;2023-11-22T13:56:11;104643.66;;;12.80;100.00
19845;BME280;10083;51.038;7.012;2023-11-22T13:58:42;104771.28;;;12.35;100.00
19845;BME280;10083;51.038;7.012;2023-11-22T14:01:11;104819.97;;;12.44;100.00
19845;BME280;10083;51.038;7.012;2023-11-22T14:03:49;104817.69;;;12.56;100.00
19845;BME280;10083;51.038;7.012;2023-11-22T14:06:23;104874.84;;;12.00;100.00
19845;BME280;10083;51.038;7.012;2023-11-22T14:08:54;104910.34;;;11.70;100.00
19845;BME280;10083;51.038;7.012;2023-11-22T14:11:22;104901.78;;;11.57;100.00
19845;BME280;10083;51.038;7.012;2023-11-22T14:13:53;104906.28;;;11.35;100.00
19845;BME280;10083;51.038;7.012;2023-11-22T14:16:24;104894.63;;;10.92;100.00
19845;BME280;10083;51.038;7.012;2023-11-22T14:18:53;104963.63;;;10.55;100.00
19845;BME280;10083;51.038;7.012;2023-11-22T14:21:23;105039.22;;;10.67;100.00
19845;BME280;10083;51.038;7.012;2023-11-22T14:23:55;105074.72;;;10.42;100.00
19845;BME280;10083;51.038;7.012;2023-11-22T14:26:24;105124.50;;;9.84;100.00
19845;BME280;10083;51.038;7.012;2023-11-22T14:57:04;105392.44;;;8.93;100.00
19845;BME280;10083;51.038;7.012;2023-11-22T14:59:37;105405.38;;;8.85;100.00
19845;BME280;10083;51.038;7.012;2023-11-22T15:13:18;105463.81;;;8.50;100.00
19845;BME280;10083;51.038;7.012;2023-11-22T15:18:35;105434.66;;;8.40;100.00
19845;BME280;10083;51.038;7.012;2023-11-22T15:21:14;105444.72;;;8.58;100.00
19845;BME280;10083;51.038;7.012;2023-11-22T15:23:41;105438.09;;;8.37;100.00
19845;BME280;10083;51.038;7.012;2023-11-22T15:26:26;105478.63;;;8.30;100.00
19845;BME280;10083;51.038;7.012;2023-11-22T15:29:01;105518.88;;;8.20;100.00
19845;BME280;10083;51.038;7.012;2023-11-22T15:31:58;105569.44;;;8.17;100.00
19845;BME280;10083;51.038;7.012;2023-11-22T15:34:43;105586.75;;;8.24;100.00
19845;BME280;10083;51.038;7.012;2023-11-22T15:37:41;105593.84;;;8.36;100.00
19845;BME280;10083;51.038;7.012;2023-11-22T15:40:10;105600.22;;;8.38;100.00
19845;BME280;10083;51.038;7.012;2023-11-22T15:42:43;105595.81;;;8.26;100.00
19845;BME280;10083;51.038;7.012;2023-11-22T15:45:37;105604.34;;;8.20;100.00
19845;BME280;10083;51.038;7.012;2023-11-22T15:51:25;105629.13;;;8.04;100.00
19845;BME280;10083;51.038;7.012;2023-11-22T15:53:53;105609.25;;;8.27;100.00
19845;BME280;10083;51.038;7.012;2023-11-22T15:56:21;105603.41;;;8.19;100.00
19845;BME280;10083;51.038;7.012;2023-11-22T17:28:59;105525.97;;;7.92;100.00
19845;BME280;10083;51.038;7.012;2023-11-22T17:31:30;105490.09;;;8.01;100.00
19845;BME280;10083;51.038;7.012;2023-11-22T17:33:57;105493.72;;;7.89;100.00
19845;BME280;10083;51.038;7.012;2023-11-22T17:36:25;105452.09;;;7.78;100.00
19845;BME280;10083;51.038;7.012;2023-11-22T17:38:53;105449.81;;;7.84;100.00
19845;BME280;10083;51.038;7.012;2023-11-22T17:41:22;105404.25;;;7.81;100.00
19845;BME280;10083;51.038;7.012;2023-11-22T17:44:00;105409.13;;;7.88;100.00
19845;BME280;10083;51.038;7.012;2023-11-22T17:46:30;105382.59;;;7.76;100.00
19845;BME280;10083;51.038;7.012;2023-11-22T17:48:59;105351.16;;;7.85;100.00
19845;BME280;10083;51.038;7.012;2023-11-22T17:51:27;105371.88;;;7.89;100.00